Time;durP1;ratioP1;P1;durP2;ratioP2;P2;SDS_P1;SDS_P2;PMS_P1;PMS_P2;Temp;Humidity;BMP_temperature;BMP_pressure;BME280_temperature;BME280_humidity;BME280_pressure;Samples;Min_cycle;Max_cycle;Signal;HPM_P1;HPM_P2
2023/12/04 00:04:39;;;;;;;36.67;26.17;;;-1.10;98.40;;;;;;10276715;28;20350;-78
2023/12/04 00:09:40;;;;;;;28.73;22.27;;;-1.10;98.00;;;;;;10267971;28;20207;-78
2023/12/04 00:14:42;;;;;;;25.53;20.53;;;-1.20;98.00;;;;;;10276044;28;20275;-78
2023/12/04 00:19:45;;;;;;;21.40;17.80;;;-1.20;97.80;;;;;;10289012;28;20203;-78
2023/12/04 00:24:47;;;;;;;19.40;17.40;;;-1.20;97.80;;;;;;10289559;28;20215;-78
2023/12/04 00:29:49;;;;;;;21.13;17.40;;;-1.30;97.40;;;;;;10289466;28;20231;-78
2023/12/04 00:34:52;;;;;;;19.87;17.70;;;-1.30;97.50;;;;;;10289072;28;20251;-78
2023/12/04 00:39:54;;;;;;;21.90;17.73;;;-1.30;97.80;;;;;;10287215;28;20373;-77
2023/12/04 00:44:56;;;;;;;20.80;17.77;;;-1.30;97.70;;;;;;10285896;28;20290;-77
2023/12/04 00:49:59;;;;;;;19.50;17.40;;;-1.30;97.40;;;;;;10283038;28;20868;-77
2023/12/04 00:55:01;;;;;;;22.30;19.40;;;-1.40;97.60;;;;;;10266957;28;20232;-75
2023/12/04 01:00:03;;;;;;;19.40;16.27;;;-1.40;97.70;;;;;;10286636;28;20266;-77
2023/12/04 01:05:07;;;;;;;19.43;17.37;;;-1.40;97.70;;;;;;10286420;28;20310;-77
2023/12/04 01:10:10;;;;;;;21.00;18.00;;;-1.40;97.70;;;;;;10286205;28;20200;-77
2023/12/04 01:15:11;;;;;;;21.67;18.30;;;-1.40;97.50;;;;;;10265144;28;20289;-77
2023/12/04 01:20:15;;;;;;;20.70;17.80;;;-1.50;97.60;;;;;;10286334;28;20215;-77
2023/12/04 01:25:17;;;;;;;18.13;16.23;;;-1.50;97.80;;;;;;10285598;28;20219;-77
2023/12/04 01:30:18;;;;;;;17.80;15.40;;;-1.50;97.60;;;;;;10269889;28;20627;-77
2023/12/04 01:35:22;;;;;;;17.33;15.47;;;-1.50;98.00;;;;;;10270561;28;20254;-77
2023/12/04 01:40:24;;;;;;;18.67;16.70;;;-1.40;97.50;;;;;;10282572;28;20204;-77
2023/12/04 01:45:26;;;;;;;18.93;16.20;;;-1.50;97.40;;;;;;10250214;28;20279;-77
2023/12/04 01:50:29;;;;;;;18.43;14.77;;;-1.50;97.60;;;;;;10250592;28;20197;-77
2023/12/04 01:55:33;;;;;;;19.40;17.30;;;-1.50;97.90;;;;;;10245733;28;20224;-77
2023/12/04 02:00:35;;;;;;;19.53;16.50;;;-1.50;97.90;;;;;;10244488;28;20351;-77
2023/12/04 02:05:39;;;;;;;19.23;15.93;;;-1.40;98.00;;;;;;10281404;28;20243;-77
2023/12/04 02:10:41;;;;;;;21.00;16.17;;;-1.40;98.00;;;;;;10272416;28;20300;-77
2023/12/04 02:15:43;;;;;;;19.40;17.20;;;-1.30;97.70;;;;;;10264011;28;20224;-77
2023/12/04 02:20:46;;;;;;;18.57;16.40;;;-1.30;97.70;;;;;;10248974;28;20201;-77
2023/12/04 02:25:50;;;;;;;19.40;15.53;;;-1.30;97.60;;;;;;10280713;28;20226;-76
2023/12/04 02:30:52;;;;;;;20.70;17.27;;;-1.30;97.40;;;;;;10239005;28;20247;-76
2023/12/04 02:35:56;;;;;;;17.27;15.30;;;-1.30;97.60;;;;;;10282024;28;20232;-76
2023/12/04 02:40:59;;;;;;;20.03;16.57;;;-1.30;97.40;;;;;;10262598;28;20271;-77
2023/12/04 02:46:01;;;;;;;19.80;15.63;;;-1.30;97.70;;;;;;10261569;28;20275;-77
2023/12/04 02:51:04;;;;;;;17.60;15.40;;;-1.30;97.70;;;;;;10261266;28;20212;-77
2023/12/04 02:56:08;;;;;;;17.57;15.63;;;-1.30;97.70;;;;;;10260060;28;20220;-77
2023/12/04 03:01:10;;;;;;;18.80;16.60;;;-1.30;98.00;;;;;;10291439;28;20235;-76
2023/12/04 03:06:12;;;;;;;18.57;16.53;;;-1.20;97.90;;;;;;10255475;28;20219;-77
2023/12/04 03:11:15;;;;;;;17.50;15.60;;;-1.10;97.20;;;;;;10255544;28;20208;-79
2023/12/04 03:16:17;;;;;;;21.47;15.87;;;-1.20;97.30;;;;;;10295248;28;20247;-77
2023/12/04 03:21:19;;;;;;;16.23;14.53;;;-1.20;97.30;;;;;;10272773;28;20250;-77
2023/12/04 03:26:23;;;;;;;17.83;14.70;;;-1.20;97.60;;;;;;10264094;28;20213;-77
2023/12/04 03:31:25;;;;;;;16.80;14.93;;;-1.10;97.90;;;;;;10267916;28;20239;-79
2023/12/04 03:36:26;;;;;;;18.80;14.73;;;-1.10;97.60;;;;;;10258271;28;20251;-77
2023/12/04 03:41:30;;;;;;;17.60;15.43;;;-1.10;97.50;;;;;;10265267;28;20262;-79
2023/12/04 03:46:32;;;;;;;18.30;15.53;;;-1.00;97.40;;;;;;10268020;28;20224;-77
2023/12/04 03:51:33;;;;;;;19.83;15.50;;;-1.00;97.30;;;;;;10247671;28;20264;-78
2023/12/04 03:56:37;;;;;;;16.90;14.67;;;-1.10;97.10;;;;;;10269317;28;20220;-80
2023/12/04 04:01:39;;;;;;;17.83;15.30;;;-1.10;97.20;;;;;;10277088;28;20205;-78
2023/12/04 04:06:40;;;;;;;17.27;14.40;;;-1.10;97.30;;;;;;10267033;28;20220;-76
2023/12/04 04:11:43;;;;;;;18.20;15.97;;;-1.10;97.40;;;;;;10265573;28;20658;-77
2023/12/04 04:16:45;;;;;;;19.33;15.23;;;-1.10;97.20;;;;;;10288846;28;20227;-79
2023/12/04 04:21:47;;;;;;;16.60;14.10;;;-1.10;97.60;;;;;;10268213;28;20751;-77
2023/12/04 04:26:50;;;;;;;18.57;15.43;;;-1.10;97.40;;;;;;10270935;28;20286;-77
2023/12/04 04:31:52;;;;;;;16.93;14.43;;;-1.00;97.30;;;;;;10290046;28;20516;-77
2023/12/04 04:36:54;;;;;;;18.83;15.60;;;-1.00;97.20;;;;;;10283539;28;20231;-77
2023/12/04 04:41:57;;;;;;;16.97;15.07;;;-1.00;98.00;;;;;;10304221;28;20204;-80
2023/12/04 04:46:59;;;;;;;18.53;15.10;;;-0.90;98.00;;;;;;10287643;28;20227;-76
2023/12/04 04:52:01;;;;;;;17.13;15.30;;;-0.80;97.80;;;;;;10286718;28;20271;-76
2023/12/04 04:57:05;;;;;;;17.30;15.10;;;-0.80;97.90;;;;;;10287823;28;20239;-76
2023/12/04 05:02:06;;;;;;;18.83;16.50;;;-0.70;97.70;;;;;;10286554;28;20529;-76
2023/12/04 05:07:08;;;;;;;19.43;15.67;;;-0.70;97.40;;;;;;10276141;28;20307;-76
2023/12/04 05:12:12;;;;;;;17.43;15.47;;;-0.70;97.30;;;;;;10286006;28;20207;-77
2023/12/04 05:17:13;;;;;;;17.60;14.07;;;-0.80;97.30;;;;;;10279729;28;20283;-77
2023/12/04 05:22:15;;;;;;;17.37;15.47;;;-0.80;97.40;;;;;;10289429;28;20208;-78
2023/12/04 05:27:19;;;;;;;17.90;14.30;;;-0.80;97.60;;;;;;10288627;28;20709;-77
2023/12/04 05:32:20;;;;;;;17.63;15.27;;;-0.80;97.60;;;;;;10288402;28;20248;-78
2023/12/04 05:37:22;;;;;;;19.20;16.03;;;-0.70;97.50;;;;;;10280452;28;20660;-77
2023/12/04 05:42:26;;;;;;;16.70;13.93;;;-0.70;97.10;;;;;;10287986;28;20274;-77
2023/12/04 05:47:27;;;;;;;15.60;13.37;;;-0.70;96.70;;;;;;10283954;28;20220;-77
2023/12/04 05:52:29;;;;;;;17.33;14.63;;;-0.70;96.50;;;;;;10285488;28;20220;-76
2023/12/04 05:57:32;;;;;;;18.50;14.97;;;-0.80;96.70;;;;;;10241362;28;20646;-77
2023/12/04 06:02:34;;;;;;;15.90;13.93;;;-0.70;97.00;;;;;;10289450;28;20212;-78
2023/12/04 06:07:36;;;;;;;19.07;15.40;;;-0.70;97.00;;;;;;10264153;28;20274;-77
2023/12/04 06:12:39;;;;;;;16.93;14.50;;;-0.70;96.80;;;;;;10278638;28;20204;-76
2023/12/04 06:17:41;;;;;;;15.50;13.60;;;-0.70;96.80;;;;;;10284357;28;20195;-76
2023/12/04 06:22:44;;;;;;;17.70;14.63;;;-0.70;97.00;;;;;;10282571;28;20211;-76
2023/12/04 06:27:47;;;;;;;16.67;14.40;;;-0.70;97.30;;;;;;10284745;28;20251;-76
2023/12/04 06:32:50;;;;;;;16.83;13.53;;;-0.70;96.90;;;;;;10284093;28;20309;-75
2023/12/04 06:37:55;;;;;;;15.40;13.50;;;-0.70;97.10;;;;;;10276832;28;20208;-78
2023/12/04 06:42:58;;;;;;;16.20;14.10;;;-0.80;97.30;;;;;;10276767;28;20224;-76
2023/12/04 06:48:01;;;;;;;18.03;15.40;;;-0.70;97.60;;;;;;10285423;28;20279;-77
2023/12/04 06:53:03;;;;;;;18.00;14.80;;;-0.70;97.50;;;;;;10285714;28;20311;-76
2023/12/04 06:58:06;;;;;;;15.83;13.07;;;-0.70;96.90;;;;;;10266339;28;20215;-76
2023/12/04 07:03:08;;;;;;;14.77;13.13;;;-0.70;96.90;;;;;;10282742;28;20287;-76
2023/12/04 07:08:10;;;;;;;18.33;14.60;;;-0.80;96.30;;;;;;10271416;28;20783;-76
2023/12/04 07:13:14;;;;;;;18.63;16.53;;;-0.80;96.30;;;;;;10284368;28;20220;-77
2023/12/04 07:18:16;;;;;;;17.20;13.80;;;-0.70;96.70;;;;;;10276749;28;20278;-76
2023/12/04 07:23:18;;;;;;;16.00;13.93;;;-0.70;97.00;;;;;;10286376;28;20560;-76
2023/12/04 07:28:21;;;;;;;18.60;15.27;;;-0.70;97.00;;;;;;10289055;28;20662;-75
2023/12/04 07:33:23;;;;;;;13.07;10.87;;;-0.70;97.10;;;;;;10261722;28;20224;-78
2023/12/04 07:38:25;;;;;;;15.07;13.40;;;-0.60;97.40;;;;;;10284270;28;20204;-78
2023/12/04 07:43:28;;;;;;;17.10;13.57;;;-0.50;97.30;;;;;;10291679;28;20220;-77
2023/12/04 07:48:30;;;;;;;15.70;13.40;;;-0.50;96.90;;;;;;10290156;28;20654;-77
2023/12/04 07:53:32;;;;;;;17.90;14.30;;;-0.50;97.00;;;;;;10290492;28;20246;-77
2023/12/04 07:58:36;;;;;;;17.20;14.27;;;-0.50;96.60;;;;;;10294902;28;20235;-78
2023/12/04 08:03:38;;;;;;;14.87;13.33;;;-0.40;96.40;;;;;;10272734;28;20220;-77
2023/12/04 08:08:39;;;;;;;15.53;13.70;;;-0.40;96.30;;;;;;10278171;28;20208;-77
2023/12/04 08:13:43;;;;;;;16.00;13.57;;;-0.30;96.60;;;;;;10267196;28;20251;-77
2023/12/04 08:18:44;;;;;;;15.83;14.17;;;-0.10;96.80;;;;;;10289501;28;20215;-77
2023/12/04 08:23:46;;;;;;;15.60;12.83;;;0.00;96.40;;;;;;10288038;28;20262;-77
2023/12/04 08:28:50;;;;;;;19.83;14.53;;;0.20;97.00;;;;;;10292731;28;20200;-78
2023/12/04 08:33:52;;;;;;;15.60;12.77;;;0.30;97.30;;;;;;10292056;28;20330;-79
2023/12/04 08:38:54;;;;;;;14.80;13.07;;;0.40;96.20;;;;;;10287817;28;20206;-79
2023/12/04 08:43:57;;;;;;;14.93;13.10;;;0.40;95.80;;;;;;10290988;28;20220;-79
2023/12/04 08:48:59;;;;;;;13.73;12.30;;;0.50;95.60;;;;;;10291915;28;20301;-78
2023/12/04 08:54:01;;;;;;;15.77;13.77;;;0.40;95.80;;;;;;10287433;28;20278;-77
2023/12/04 08:59:04;;;;;;;18.90;14.77;;;0.50;96.30;;;;;;10284265;28;20200;-79
2023/12/04 09:04:08;;;;;;;13.70;12.30;;;0.70;95.90;;;;;;10287808;28;20219;-78
2023/12/04 09:09:11;;;;;;;16.60;14.10;;;0.80;95.40;;;;;;10275206;28;20270;-79
2023/12/04 09:14:14;;;;;;;14.43;12.37;;;0.80;95.90;;;;;;10282494;28;20355;-79
2023/12/04 09:19:16;;;;;;;13.90;12.20;;;0.80;95.60;;;;;;10290684;28;20196;-78
2023/12/04 09:24:18;;;;;;;14.87;12.50;;;0.90;95.80;;;;;;10290374;28;20219;-79
2023/12/04 09:29:23;;;;;;;15.83;12.17;;;1.00;95.70;;;;;;10272343;28;20196;-77
2023/12/04 09:34:25;;;;;;;13.27;10.87;;;1.10;95.40;;;;;;10287784;28;20244;-77
2023/12/04 09:39:27;;;;;;;14.70;12.10;;;1.10;95.30;;;;;;10271321;28;20192;-77
2023/12/04 09:44:32;;;;;;;14.53;12.07;;;1.20;95.20;;;;;;10279496;28;20220;-77
2023/12/04 09:49:33;;;;;;;13.80;11.90;;;1.30;95.90;;;;;;10286456;28;20200;-76
2023/12/04 09:54:37;;;;;;;13.43;11.13;;;1.40;96.20;;;;;;10286692;28;20259;-76
2023/12/04 09:59:41;;;;;;;17.17;12.43;;;1.50;96.20;;;;;;10286765;28;20207;-76
2023/12/04 10:04:44;;;;;;;15.23;12.37;;;1.60;96.20;;;;;;10275442;28;20267;-76
2023/12/04 10:09:45;;;;;;;12.37;10.57;;;1.70;96.80;;;;;;10251569;28;20193;-76
2023/12/04 10:15:04;;;;;;;12.80;10.27;;;1.80;96.60;;;;;;10254492;28;20595;-76
2023/12/04 10:20:11;;;;;;;13.97;11.10;;;1.90;96.90;;;;;;10270896;28;20255;-77
2023/12/04 10:25:17;;;;;;;13.83;11.37;;;2.00;96.60;;;;;;10268304;28;20225;-78
2023/12/04 10:30:28;;;;;;;14.83;10.57;;;2.10;97.00;;;;;;10278686;28;20620;-77
2023/12/04 10:35:31;;;;;;;9.47;8.43;;;2.20;97.60;;;;;;10269697;28;20223;-77
2023/12/04 10:40:35;;;;;;;11.63;10.43;;;2.30;97.30;;;;;;10280459;28;20367;-77
2023/12/04 10:45:39;;;;;;;12.60;9.40;;;2.40;97.30;;;;;;10283658;28;20219;-78
2023/12/04 10:50:42;;;;;;;10.93;8.93;;;2.50;97.30;;;;;;10286652;28;20291;-79
2023/12/04 10:55:45;;;;;;;13.47;10.73;;;2.60;97.40;;;;;;10291600;28;20268;-79
2023/12/04 11:00:49;;;;;;;13.87;10.70;;;2.70;97.60;;;;;;10285076;28;20271;-78
2023/12/04 11:05:56;;;;;;;12.87;11.13;;;2.90;97.30;;;;;;10283804;28;20254;-76
2023/12/04 11:11:03;;;;;;;11.70;10.50;;;2.90;96.90;;;;;;10288178;28;20539;-78
2023/12/04 11:16:13;;;;;;;14.93;12.30;;;3.00;96.60;;;;;;10263485;28;20232;-77
2023/12/04 11:21:16;;;;;;;11.63;10.47;;;3.00;96.40;;;;;;10281242;28;20228;-78
2023/12/04 11:26:18;;;;;;;17.13;13.20;;;3.00;96.70;;;;;;10260886;28;20224;-79
2023/12/04 11:31:22;;;;;;;17.00;14.10;;;3.10;97.40;;;;;;10269481;28;20208;-78
2023/12/04 11:36:24;;;;;;;17.80;14.30;;;3.10;97.70;;;;;;10292535;28;20267;-78
2023/12/04 11:41:26;;;;;;;13.70;11.53;;;3.10;98.10;;;;;;10269261;28;20613;-78
2023/12/04 11:46:31;;;;;;;11.73;10.40;;;3.10;98.60;;;;;;10291597;28;20318;-78
2023/12/04 11:51:50;;;;;;;13.43;11.20;;;3.20;98.80;;;;;;10293358;28;20654;-78
2023/12/04 11:57:00;;;;;;;15.30;11.23;;;3.30;99.00;;;;;;10293244;28;20234;-78
2023/12/04 12:02:03;;;;;;;12.60;10.80;;;3.40;99.40;;;;;;10274279;28;20311;-78
2023/12/04 12:07:07;;;;;;;11.07;9.97;;;3.50;99.20;;;;;;10286333;28;20718;-79
2023/12/04 12:12:09;;;;;;;10.50;9.27;;;3.60;98.90;;;;;;10273680;28;20549;-79
2023/12/04 12:17:13;;;;;;;16.70;12.57;;;3.60;98.70;;;;;;10293891;28;20235;-79
2023/12/04 12:22:17;;;;;;;14.73;13.10;;;3.60;98.20;;;;;;10284263;28;20239;-78
2023/12/04 12:27:19;;;;;;;17.20;14.97;;;3.50;97.80;;;;;;10295516;28;20654;-79
2023/12/04 12:32:23;;;;;;;13.90;12.27;;;3.30;98.20;;;;;;10289064;28;20204;-78
2023/12/04 12:37:25;;;;;;;16.13;13.53;;;3.30;98.90;;;;;;10274007;28;20289;-78
2023/12/04 12:42:29;;;;;;;13.90;11.40;;;3.30;99.00;;;;;;10263245;28;20208;-78
2023/12/04 12:47:32;;;;;;;15.90;13.40;;;3.30;99.70;;;;;;10278762;28;20204;-78
2023/12/04 12:52:34;;;;;;;17.30;13.70;;;3.40;99.70;;;;;;10283757;28;20263;-78
2023/12/04 12:57:36;;;;;;;14.13;12.67;;;3.40;99.60;;;;;;10284978;28;20221;-78
2023/12/04 13:02:40;;;;;;;14.30;12.77;;;3.30;99.40;;;;;;10277802;28;20226;-78
2023/12/04 13:07:42;;;;;;;15.23;12.30;;;3.30;99.30;;;;;;10277385;28;20804;-78
2023/12/04 13:12:44;;;;;;;14.60;13.10;;;3.20;99.30;;;;;;10269965;28;20206;-78
2023/12/04 13:17:47;;;;;;;14.80;13.30;;;3.20;99.90;;;;;;10279442;28;20220;-78
2023/12/04 13:22:49;;;;;;;15.93;13.00;;;3.20;99.90;;;;;;10277702;28;20213;-76
2023/12/04 13:27:51;;;;;;;15.47;13.37;;;3.20;99.90;;;;;;10280475;28;20203;-78
2023/12/04 13:32:54;;;;;;;15.20;13.60;;;3.20;99.90;;;;;;10280410;28;20231;-78
2023/12/04 13:37:59;;;;;;;16.30;14.47;;;3.20;99.80;;;;;;10273008;28;21014;-78
2023/12/04 13:48:32;;;;;;;16.53;13.40;;;3.10;99.20;;;;;;10231185;28;20229;-78
2023/12/04 13:53:35;;;;;;;15.30;13.70;;;3.10;99.60;;;;;;10282153;28;20250;-77
2023/12/04 13:58:39;;;;;;;17.50;15.43;;;3.10;99.80;;;;;;10279606;28;20625;-78
2023/12/04 14:03:43;;;;;;;14.10;12.47;;;3.20;99.20;;;;;;10286973;28;20230;-78
2023/12/04 14:08:45;;;;;;;14.97;13.47;;;3.10;98.40;;;;;;10270090;28;20200;-77
2023/12/04 14:13:47;;;;;;;19.00;16.77;;;3.00;98.30;;;;;;10279592;28;20334;-78
2023/12/04 14:18:51;;;;;;;21.77;17.87;;;3.00;98.60;;;;;;10258246;28;20231;-78
2023/12/04 14:23:52;;;;;;;18.77;16.77;;;2.90;97.80;;;;;;10272696;28;20250;-77
2023/12/04 14:28:56;;;;;;;21.40;17.90;;;2.70;98.30;;;;;;10280602;28;20681;-78
2023/12/04 14:33:59;;;;;;;20.07;16.97;;;2.70;98.50;;;;;;10288320;28;20302;-77
2023/12/04 14:39:01;;;;;;;22.23;17.60;;;2.60;99.00;;;;;;10288380;28;20254;-77
2023/12/04 14:44:03;;;;;;;19.23;16.07;;;2.70;98.90;;;;;;10293179;28;20271;-78
2023/12/04 14:49:06;;;;;;;19.13;15.87;;;2.60;98.70;;;;;;10286995;28;20215;-78
2023/12/04 14:54:16;;;;;;;22.50;16.97;;;2.60;98.80;;;;;;10288383;28;20247;-77
2023/12/04 15:15:38;;;;;;;18.73;16.20;;;2.80;99.90;;;;;;10241578;28;20232;-78
2023/12/04 15:20:42;;;;;;;20.10;16.50;;;2.80;99.80;;;;;;10289944;28;20199;-75
2023/12/04 15:25:43;;;;;;;19.90;16.37;;;2.80;99.90;;;;;;10290248;28;20275;-77
2023/12/04 15:30:45;;;;;;;18.60;16.40;;;2.80;99.90;;;;;;10279954;28;20690;-77
2023/12/04 15:35:49;;;;;;;21.33;15.83;;;2.80;99.90;;;;;;10290421;28;20312;-76
2023/12/04 15:40:51;;;;;;;20.03;17.90;;;2.90;99.90;;;;;;10293461;28;20204;-75
2023/12/04 15:45:54;;;;;;;19.47;17.30;;;2.90;99.90;;;;;;10279144;28;20216;-78
2023/12/04 15:50:57;;;;;;;19.73;16.97;;;3.00;99.90;;;;;;10279900;28;20216;-78
2023/12/04 15:55:59;;;;;;;23.57;18.90;;;3.00;99.90;;;;;;10278097;28;20306;-76
2023/12/04 16:01:02;;;;;;;21.50;18.90;;;3.00;99.90;;;;;;10290204;28;20713;-76
2023/12/04 16:06:06;;;;;;;20.87;16.93;;;3.00;99.90;;;;;;10272494;28;20228;-77
2023/12/04 16:11:08;;;;;;;19.27;17.27;;;2.90;99.90;;;;;;10287436;28;20212;-77
2023/12/04 16:16:11;;;;;;;20.93;18.20;;;2.90;99.90;;;;;;10257448;28;20232;-76
2023/12/04 16:21:14;;;;;;;25.13;19.13;;;2.90;99.90;;;;;;10239914;28;20258;-78
2023/12/04 16:26:16;;;;;;;23.47;18.33;;;2.90;99.90;;;;;;10279322;28;20223;-76
2023/12/04 16:31:19;;;;;;;21.20;17.67;;;2.90;99.90;;;;;;10240304;28;20200;-77
2023/12/04 16:36:23;;;;;;;19.80;17.20;;;2.90;99.90;;;;;;10286959;28;20294;-77
2023/12/04 16:41:25;;;;;;;20.50;17.27;;;3.00;99.90;;;;;;10287674;28;20208;-76
2023/12/04 16:46:27;;;;;;;20.87;17.60;;;3.00;99.90;;;;;;10278429;28;20224;-76
2023/12/04 16:51:31;;;;;;;19.57;17.10;;;3.10;99.90;;;;;;10255026;28;20584;-76
2023/12/04 16:56:32;;;;;;;23.50;18.60;;;3.10;99.90;;;;;;10277580;28;20224;-77
2023/12/04 17:01:35;;;;;;;19.90;17.50;;;3.20;99.90;;;;;;10254114;28;20227;-77
2023/12/04 17:06:38;;;;;;;18.97;16.40;;;3.20;99.90;;;;;;10283546;28;20222;-77
2023/12/04 17:11:40;;;;;;;21.47;16.90;;;3.20;99.90;;;;;;10286455;28;20225;-75
2023/12/04 17:16:41;;;;;;;21.20;18.57;;;3.20;99.90;;;;;;10279407;28;20275;-76
2023/12/04 17:21:52;;;;;;;19.93;17.77;;;3.20;99.90;;;;;;10526966;28;21048;-78
2023/12/04 17:26:54;;;;;;;24.10;19.60;;;3.20;99.90;;;;;;10531158;28;20243;-78
2023/12/04 17:31:55;;;;;;;31.50;22.67;;;3.20;99.90;;;;;;10528187;28;20222;-77
2023/12/04 17:36:59;;;;;;;35.17;26.57;;;3.10;99.90;;;;;;10535916;28;20227;-77
2023/12/04 17:42:01;;;;;;;27.80;22.97;;;3.00;99.90;;;;;;10527560;28;20298;-78
2023/12/04 17:47:02;;;;;;;24.60;21.30;;;2.90;99.90;;;;;;10526935;28;20203;-78
2023/12/04 17:52:07;;;;;;;22.00;19.60;;;2.90;99.90;;;;;;10525903;28;20238;-77
2023/12/04 17:57:09;;;;;;;24.23;20.90;;;2.80;99.90;;;;;;10524692;28;20781;-78
2023/12/04 18:02:11;;;;;;;28.60;22.37;;;2.80;99.90;;;;;;10525420;28;20218;-77
2023/12/04 18:07:14;;;;;;;25.23;20.00;;;2.80;99.90;;;;;;10527790;28;20372;-77
2023/12/04 18:12:16;;;;;;;24.57;19.83;;;2.70;99.90;;;;;;10523920;28;20257;-77
2023/12/04 18:17:19;;;;;;;26.40;22.20;;;2.60;99.90;;;;;;10523788;28;20552;-77
2023/12/04 18:22:23;;;;;;;28.67;22.80;;;2.60;99.90;;;;;;10524769;28;20196;-77
2023/12/04 18:27:25;;;;;;;23.50;20.13;;;2.60;99.90;;;;;;10523890;28;20208;-77
2023/12/04 18:32:28;;;;;;;26.87;22.07;;;2.50;99.90;;;;;;10499114;28;20200;-77
2023/12/04 18:37:36;;;;;;;22.50;19.10;;;2.50;99.90;;;;;;10505661;28;20274;-78
2023/12/04 18:42:38;;;;;;;29.40;22.90;;;2.50;99.90;;;;;;10498530;28;20227;-77
2023/12/04 18:47:44;;;;;;;23.77;20.10;;;2.50;99.90;;;;;;10495643;28;20258;-77
2023/12/04 18:52:49;;;;;;;26.90;22.37;;;2.50;99.90;;;;;;10495845;28;20247;-78
2023/12/04 18:57:51;;;;;;;24.57;19.73;;;2.50;99.90;;;;;;10494667;28;20209;-77
2023/12/04 19:02:53;;;;;;;26.50;20.53;;;2.50;99.90;;;;;;10496612;28;20217;-77
2023/12/04 19:07:56;;;;;;;26.93;22.03;;;2.50;99.90;;;;;;10502067;28;20188;-76
2023/12/04 19:12:58;;;;;;;27.67;23.57;;;2.60;99.90;;;;;;10495401;28;20216;-77
2023/12/04 19:18:00;;;;;;;30.37;23.37;;;2.50;99.90;;;;;;10492508;28;20216;-78
2023/12/04 19:23:04;;;;;;;24.07;20.10;;;2.50;99.90;;;;;;10492656;28;20327;-78
2023/12/04 19:28:06;;;;;;;25.40;18.83;;;2.50;99.90;;;;;;10491143;28;20296;-77
2023/12/04 19:33:07;;;;;;;26.03;20.53;;;2.50;99.90;;;;;;10469116;28;20294;-78
2023/12/04 19:38:11;;;;;;;28.13;20.20;;;2.50;99.90;;;;;;10490928;28;20244;-78
2023/12/04 19:43:14;;;;;;;24.60;19.30;;;2.50;99.90;;;;;;10462186;28;20527;-78
2023/12/04 19:48:16;;;;;;;22.93;19.40;;;2.60;99.90;;;;;;10483708;28;20196;-78
2023/12/04 19:53:19;;;;;;;22.83;18.83;;;2.60;99.90;;;;;;10493156;28;20224;-79
2023/12/04 19:58:21;;;;;;;26.10;21.47;;;2.60;99.90;;;;;;10492893;28;20304;-78
2023/12/04 20:03:24;;;;;;;34.30;26.07;;;2.60;99.90;;;;;;10494258;28;20726;-77
2023/12/04 20:08:28;;;;;;;25.00;20.20;;;2.70;99.90;;;;;;10492233;28;20659;-78
2023/12/04 20:13:30;;;;;;;23.40;20.10;;;2.70;99.90;;;;;;10482070;28;20212;-78
2023/12/04 20:18:32;;;;;;;27.93;22.77;;;2.70;99.90;;;;;;10490331;28;20576;-78
2023/12/04 20:23:35;;;;;;;25.67;20.10;;;2.80;99.90;;;;;;10493002;28;20224;-77
2023/12/04 20:28:37;;;;;;;22.07;19.70;;;2.80;99.90;;;;;;10493428;28;20654;-78
2023/12/04 20:33:40;;;;;;;22.20;18.90;;;2.90;99.90;;;;;;10492288;28;20216;-78
2023/12/04 20:38:43;;;;;;;23.40;19.67;;;2.90;99.90;;;;;;10492006;28;20274;-78
2023/12/04 20:43:45;;;;;;;21.10;18.53;;;3.00;99.90;;;;;;10493081;28;20208;-78
2023/12/04 20:48:47;;;;;;;25.10;20.33;;;3.00;99.90;;;;;;10492809;28;20199;-78
2023/12/04 20:53:50;;;;;;;21.07;18.87;;;3.10;99.90;;;;;;10495552;28;20605;-79
2023/12/04 20:58:54;;;;;;;20.27;18.10;;;3.10;99.90;;;;;;10494222;28;20216;-79
2023/12/04 21:03:57;;;;;;;19.10;16.10;;;3.10;99.90;;;;;;10492034;28;20224;-77
2023/12/04 21:09:00;;;;;;;20.47;17.70;;;3.10;99.90;;;;;;10492856;28;20204;-79
2023/12/04 21:14:02;;;;;;;22.10;18.67;;;3.10;99.90;;;;;;10495216;28;20213;-77
2023/12/04 21:19:04;;;;;;;22.90;18.63;;;3.10;99.90;;;;;;10487587;28;20260;-78
2023/12/04 21:24:08;;;;;;;21.50;19.20;;;3.10;99.90;;;;;;10492014;28;20438;-78
2023/12/04 21:29:10;;;;;;;22.40;18.60;;;3.10;99.90;;;;;;10483538;28;20612;-78
2023/12/04 21:34:12;;;;;;;21.80;19.10;;;3.20;99.90;;;;;;10466979;28;20221;-77
2023/12/04 21:39:15;;;;;;;18.10;16.20;;;3.30;99.90;;;;;;10489943;28;20208;-78
2023/12/04 21:44:17;;;;;;;20.43;17.90;;;3.30;99.90;;;;;;10477488;28;20229;-78
2023/12/04 21:49:19;;;;;;;19.40;17.27;;;3.30;99.90;;;;;;10471497;28;20461;-78
2023/12/04 21:54:22;;;;;;;18.57;16.67;;;3.40;99.90;;;;;;10481353;28;20217;-78
2023/12/04 21:59:24;;;;;;;19.50;17.47;;;3.40;99.90;;;;;;10492645;28;20293;-77
2023/12/04 22:04:26;;;;;;;17.67;15.33;;;3.40;99.90;;;;;;10493529;28;20224;-78
2023/12/04 22:09:30;;;;;;;19.53;15.90;;;3.40;99.90;;;;;;10497526;28;20201;-79
2023/12/04 22:14:32;;;;;;;14.37;12.97;;;3.40;99.90;;;;;;10493794;28;20212;-78
2023/12/04 22:19:33;;;;;;;15.70;14.13;;;3.40;99.90;;;;;;10491316;28;20718;-78
2023/12/04 22:24:37;;;;;;;14.27;12.87;;;3.40;99.90;;;;;;10477552;28;20618;-78
2023/12/04 22:29:39;;;;;;;14.47;12.37;;;3.50;99.90;;;;;;10478620;28;20740;-78
2023/12/04 22:34:40;;;;;;;13.83;12.53;;;3.50;99.90;;;;;;10477494;28;20238;-74
2023/12/04 22:39:44;;;;;;;16.40;14.70;;;3.50;99.90;;;;;;10477662;28;20253;-78
2023/12/04 22:44:46;;;;;;;15.23;13.73;;;3.50;99.90;;;;;;10477811;28;20216;-76
2023/12/04 22:49:48;;;;;;;15.20;13.70;;;3.60;99.90;;;;;;10484387;28;20284;-78
2023/12/04 22:54:51;;;;;;;15.23;13.57;;;3.60;99.90;;;;;;10502649;28;20247;-78
2023/12/04 22:59:53;;;;;;;13.93;12.53;;;3.60;99.90;;;;;;10498755;28;20223;-79
2023/12/04 23:04:55;;;;;;;13.60;12.20;;;3.60;99.90;;;;;;10498086;28;20278;-78
2023/12/04 23:09:58;;;;;;;13.10;11.00;;;3.60;99.90;;;;;;10496235;28;20200;-78
2023/12/04 23:15:00;;;;;;;14.70;10.60;;;3.70;99.90;;;;;;10482420;28;20221;-77
2023/12/04 23:20:02;;;;;;;10.87;9.90;;;3.70;99.90;;;;;;10486190;28;20220;-78
2023/12/04 23:25:07;;;;;;;12.03;10.67;;;3.70;99.90;;;;;;10497136;28;20311;-78
2023/12/04 23:30:09;;;;;;;11.97;10.77;;;3.70;99.90;;;;;;10494747;28;20207;-78
2023/12/04 23:35:11;;;;;;;11.90;10.70;;;3.70;99.90;;;;;;10469851;28;20225;-78
2023/12/04 23:40:15;;;;;;;11.90;10.80;;;3.70;99.90;;;;;;10479881;28;20223;-78
2023/12/04 23:45:17;;;;;;;11.20;10.20;;;3.80;99.90;;;;;;10471545;28;20228;-78
2023/12/04 23:50:19;;;;;;;9.83;8.83;;;3.80;99.90;;;;;;10468161;28;20213;-77
2023/12/04 23:55:23;;;;;;;11.30;9.80;;;3.80;99.90;;;;;;10472500;28;20710;-78
